createdAt,value
2017-04-28T00:00:22.169Z,0
2017-04-28T00:01:31.172Z,0
2017-04-28T00:02:40.554Z,0
2017-04-28T00:03:49.636Z,0
2017-04-28T00:04:58.711Z,0
2017-04-28T00:06:07.781Z,0
2017-04-28T00:07:17.095Z,0
2017-04-28T00:08:26.210Z,0
2017-04-28T00:09:35.613Z,0
2017-04-28T00:10:44.371Z,0
2017-04-28T00:11:53.754Z,0
2017-04-28T00:13:03.136Z,0
2017-04-28T00:14:12.817Z,0
2017-04-28T00:15:22.187Z,0
2017-04-28T00:16:30.966Z,0
2017-04-28T00:17:40.346Z,0
2017-04-28T00:18:50.025Z,0
2017-04-28T00:19:59.409Z,0
2017-04-28T00:21:09.083Z,0
2017-04-28T00:22:18.146Z,0
2017-04-28T00:23:26.915Z,0
2017-04-28T00:24:36.290Z,0
2017-04-28T00:25:45.296Z,0
2017-04-28T00:26:54.059Z,0
2017-04-28T00:28:03.426Z,0
2017-04-28T00:29:12.499Z,0
2017-04-28T00:30:21.267Z,0
2017-04-28T00:31:29.969Z,0
2017-04-28T00:32:39.347Z,0
2017-04-28T00:33:48.358Z,0
2017-04-28T00:34:58.043Z,0
2017-04-28T00:36:07.112Z,0
2017-04-28T00:37:16.181Z,0
2017-04-28T00:38:25.497Z,0
2017-04-28T00:39:35.191Z,0
2017-04-28T00:40:43.951Z,0
2017-04-28T00:41:52.704Z,0
2017-04-28T00:43:02.393Z,0
2017-04-28T00:44:11.464Z,0
2017-04-28T00:45:20.161Z,0
2017-04-28T00:46:29.259Z,0
2017-04-28T00:47:38.324Z,0
2017-04-28T00:48:48.007Z,0
2017-04-28T00:49:57.022Z,0
2017-04-28T00:51:06.406Z,0
2017-04-28T00:52:15.784Z,0
2017-04-28T00:53:25.469Z,0
2017-04-28T00:54:34.546Z,0
2017-04-28T00:55:43.617Z,0
2017-04-28T00:56:52.698Z,0
2017-04-28T00:58:02.309Z,0
2017-04-28T00:59:11.366Z,0
2017-04-28T01:00:20.439Z,0
2017-04-28T01:01:29.200Z,0
2017-04-28T01:02:38.886Z,0
2017-04-28T01:03:47.957Z,0
2017-04-28T01:04:57.052Z,0
2017-04-28T01:06:06.432Z,0
2017-04-28T01:07:15.130Z,0
2017-04-28T01:08:24.233Z,0
2017-04-28T01:09:33.619Z,0
2017-04-28T01:10:42.318Z,0
2017-04-28T01:11:51.627Z,0
2017-04-28T01:13:00.709Z,0
2017-04-28T01:14:09.415Z,0
2017-04-28T01:15:18.423Z,0
2017-04-28T01:16:27.191Z,0
2017-04-28T01:17:36.560Z,0
2017-04-28T01:18:46.245Z,0
2017-04-28T01:19:55.898Z,0
2017-04-28T01:21:05.274Z,0
2017-04-28T01:22:14.347Z,0
2017-04-28T01:23:23.721Z,0
2017-04-28T01:24:33.421Z,0
2017-04-28T01:25:42.484Z,0
2017-04-28T01:26:51.567Z,0
2017-04-28T01:28:01.253Z,0
2017-04-28T01:29:10.327Z,0
2017-04-28T01:30:19.103Z,0
2017-04-28T01:31:28.179Z,0
2017-04-28T01:32:36.941Z,0
2017-04-28T01:33:46.319Z,0
2017-04-28T01:34:55.635Z,0
2017-04-28T01:36:05.008Z,0
2017-04-28T01:37:14.081Z,0
2017-04-28T01:38:23.192Z,0
2017-04-28T01:39:31.965Z,0
2017-04-28T01:40:41.028Z,0
2017-04-28T01:41:49.804Z,0
2017-04-28T01:42:59.151Z,0
2017-04-28T01:44:07.906Z,0
2017-04-28T01:45:16.823Z,0
2017-04-28T01:46:25.641Z,0
2017-04-28T01:47:35.026Z,0
2017-04-28T01:48:44.409Z,0
2017-04-28T01:49:53.477Z,0
2017-04-28T01:51:02.884Z,0
2017-04-28T01:52:11.920Z,0
2017-04-28T01:53:21.189Z,0
2017-04-28T01:54:30.884Z,0
2017-04-28T01:55:40.262Z,0
2017-04-28T01:56:49.334Z,0
2017-04-28T01:57:59.022Z,0
2017-04-28T01:59:08.341Z,0
2017-04-28T02:00:17.109Z,0
2017-04-28T02:01:26.172Z,0
2017-04-28T02:02:35.248Z,0
2017-04-28T02:03:44.627Z,0
2017-04-28T02:04:53.906Z,0
2017-04-28T02:06:03.617Z,0
2017-04-28T02:07:12.694Z,0
2017-04-28T02:08:21.775Z,0
2017-04-28T02:09:30.844Z,0
2017-04-28T02:10:39.607Z,0
2017-04-28T02:11:48.685Z,0
2017-04-28T02:12:58.065Z,0
2017-04-28T02:14:07.139Z,0
2017-04-28T02:15:15.946Z,0
2017-04-28T02:16:25.010Z,0
2017-04-28T02:17:33.781Z,0
2017-04-28T02:18:42.537Z,0
2017-04-28T02:19:51.622Z,0
2017-04-28T02:21:01.307Z,0
2017-04-28T02:22:10.693Z,0
2017-04-28T02:23:20.077Z,0
2017-04-28T02:24:28.873Z,0
2017-04-28T02:25:38.582Z,0
2017-04-28T02:26:47.613Z,0
2017-04-28T02:27:57.018Z,0
2017-04-28T02:29:06.043Z,0
2017-04-28T02:30:15.121Z,0
2017-04-28T02:31:24.527Z,0
2017-04-28T02:32:33.928Z,0
2017-04-28T02:33:43.333Z,0
2017-04-28T02:34:52.429Z,0
2017-04-28T02:36:01.760Z,0
2017-04-28T02:37:10.846Z,0
2017-04-28T02:38:19.634Z,0
2017-04-28T02:39:28.722Z,0
2017-04-28T02:40:37.812Z,0
2017-04-28T02:41:47.201Z,0
2017-04-28T02:42:56.593Z,0
2017-04-28T02:44:05.931Z,0
2017-04-28T02:45:14.952Z,0
2017-04-28T02:46:23.945Z,0
2017-04-28T02:47:33.058Z,0
2017-04-28T02:48:41.839Z,0
2017-04-28T02:49:51.549Z,0
2017-04-28T02:51:00.639Z,0
2017-04-28T02:52:09.429Z,0
2017-04-28T02:53:19.062Z,0
2017-04-28T02:54:29.030Z,0
2017-04-28T02:55:38.433Z,0
2017-04-28T02:56:47.160Z,0
2017-04-28T02:57:56.865Z,0
2017-04-28T02:59:06.502Z,0
2017-04-28T03:00:15.595Z,0
2017-04-28T03:01:24.683Z,0
2017-04-28T03:02:33.708Z,0
2017-04-28T03:03:42.764Z,0
2017-04-28T03:04:52.170Z,0
2017-04-28T03:06:01.878Z,0
2017-04-28T03:07:10.601Z,0
2017-04-28T03:08:19.629Z,0
2017-04-28T03:09:29.019Z,0
2017-04-28T03:10:38.115Z,0
2017-04-28T03:11:47.508Z,0
2017-04-28T03:12:56.601Z,0
2017-04-28T03:14:05.610Z,0
2017-04-28T03:15:15.047Z,0
2017-04-28T03:16:23.967Z,0
2017-04-28T03:17:33.051Z,0
2017-04-28T03:18:42.755Z,0
2017-04-28T03:19:51.467Z,0
2017-04-28T03:21:00.862Z,0
2017-04-28T03:22:09.954Z,0
2017-04-28T03:23:19.050Z,0
2017-04-28T03:24:28.796Z,0
2017-04-28T03:25:37.889Z,0
2017-04-28T03:26:46.963Z,0
2017-04-28T03:27:56.668Z,0
2017-04-28T03:29:06.006Z,0
2017-04-28T03:30:15.247Z,0
2017-04-28T03:31:24.334Z,0
2017-04-28T03:32:33.138Z,0
2017-04-28T03:33:42.533Z,0
2017-04-28T03:34:51.317Z,0
2017-04-28T03:36:00.357Z,0
2017-04-28T03:37:10.049Z,0
2017-04-28T03:38:19.440Z,0
2017-04-28T03:39:29.459Z,0
2017-04-28T03:40:39.171Z,0
2017-04-28T03:41:48.247Z,0
2017-04-28T03:42:57.344Z,0
2017-04-28T03:44:06.365Z,0
2017-04-28T03:45:15.501Z,0
2017-04-28T03:46:24.286Z,0
2017-04-28T03:47:33.076Z,0
2017-04-28T03:48:42.826Z,0
2017-04-28T03:49:51.961Z,0
2017-04-28T03:51:01.288Z,0
2017-04-28T03:52:10.000Z,0
2017-04-28T03:53:18.813Z,0
2017-04-28T03:54:28.211Z,0
2017-04-28T03:55:37.843Z,0
2017-04-28T03:56:46.932Z,0
2017-04-28T03:57:56.035Z,0
2017-04-28T03:59:05.129Z,0
2017-04-28T04:00:14.225Z,0
2017-04-28T04:01:23.628Z,0
2017-04-28T04:02:32.713Z,0
2017-04-28T04:03:41.805Z,0
2017-04-28T04:04:50.904Z,0
2017-04-28T04:05:59.930Z,0
2017-04-28T04:07:08.649Z,0
2017-04-28T04:08:18.032Z,0
2017-04-28T04:09:28.355Z,0
2017-04-28T04:10:37.145Z,0
2017-04-28T04:11:45.935Z,0
2017-04-28T04:12:55.258Z,0
2017-04-28T04:14:04.955Z,0
2017-04-28T04:15:14.032Z,0
2017-04-28T04:16:23.105Z,0
2017-04-28T04:17:32.151Z,0
2017-04-28T04:18:41.564Z,0
2017-04-28T04:19:50.662Z,0
2017-04-28T04:20:59.453Z,0
2017-04-28T04:22:08.542Z,0
2017-04-28T04:23:17.323Z,0
2017-04-28T04:24:26.727Z,0
2017-04-28T04:25:36.125Z,0
2017-04-28T04:26:45.528Z,0
2017-04-28T04:27:54.612Z,0
2017-04-28T04:29:04.352Z,0
2017-04-28T04:30:13.133Z,0
2017-04-28T04:31:21.907Z,0
2017-04-28T04:32:31.300Z,5
2017-04-28T04:33:40.701Z,5
2017-04-28T04:34:49.697Z,5
2017-04-28T04:35:58.805Z,5
2017-04-28T04:37:07.902Z,5
2017-04-28T04:38:16.993Z,5
2017-04-28T04:39:26.435Z,5
2017-04-28T04:40:35.576Z,5
2017-04-28T04:41:44.949Z,5
2017-04-28T04:42:54.044Z,5
2017-04-28T04:44:03.135Z,5
2017-04-28T04:45:11.926Z,5
2017-04-28T04:46:20.719Z,5
2017-04-28T04:47:30.114Z,5
2017-04-28T04:48:39.215Z,5
2017-04-28T04:49:48.607Z,5
2017-04-28T04:50:57.393Z,5
2017-04-28T04:52:06.489Z,5
2017-04-28T04:53:15.286Z,10
2017-04-28T04:54:25.011Z,10
2017-04-28T04:55:33.794Z,10
2017-04-28T04:56:42.820Z,10
2017-04-28T04:57:51.851Z,10
2017-04-28T04:59:00.566Z,10
2017-04-28T05:00:09.339Z,10
2017-04-28T05:01:18.109Z,10
2017-04-28T05:02:27.827Z,10
2017-04-28T05:03:36.846Z,10
2017-04-28T05:04:46.547Z,10
2017-04-28T05:05:56.247Z,10
2017-04-28T05:07:05.031Z,10
2017-04-28T05:08:14.732Z,15
2017-04-28T05:09:24.143Z,15
2017-04-28T05:10:32.871Z,15
2017-04-28T05:11:41.664Z,15
2017-04-28T05:12:51.602Z,15
2017-04-28T05:14:00.938Z,15
2017-04-28T05:15:09.730Z,15
2017-04-28T05:16:18.512Z,15
2017-04-28T05:17:27.290Z,15
2017-04-28T05:18:36.374Z,15
2017-04-28T05:19:45.487Z,15
2017-04-28T05:20:54.273Z,15
2017-04-28T05:22:03.289Z,15
2017-04-28T05:23:12.693Z,15
2017-04-28T05:24:21.807Z,20
2017-04-28T05:25:30.838Z,20
2017-04-28T05:26:39.932Z,20
2017-04-28T05:27:49.371Z,20
2017-04-28T05:28:58.404Z,20
2017-04-28T05:30:07.500Z,20
2017-04-28T05:31:16.308Z,20
2017-04-28T05:32:25.722Z,20
2017-04-28T05:33:35.437Z,20
2017-04-28T05:34:44.761Z,25
2017-04-28T05:35:53.858Z,25
2017-04-28T05:37:03.533Z,25
2017-04-28T05:38:12.628Z,25
2017-04-28T05:39:22.128Z,25
2017-04-28T05:40:31.217Z,25
2017-04-28T05:41:40.317Z,25
2017-04-28T05:42:49.716Z,25
2017-04-28T05:43:59.428Z,30
2017-04-28T05:45:08.525Z,30
2017-04-28T05:46:17.246Z,30
2017-04-28T05:47:26.944Z,30
2017-04-28T05:48:36.652Z,30
2017-04-28T05:49:45.445Z,30
2017-04-28T05:50:54.169Z,30
2017-04-28T05:52:03.561Z,30
2017-04-28T05:53:12.575Z,30
2017-04-28T05:54:21.362Z,35
2017-04-28T05:55:30.469Z,35
2017-04-28T05:56:39.264Z,35
2017-04-28T05:57:48.660Z,35
2017-04-28T05:58:58.060Z,35
2017-04-28T06:00:07.150Z,35
2017-04-28T06:01:16.244Z,35
2017-04-28T06:02:25.648Z,35
2017-04-28T06:03:34.748Z,40
2017-04-28T06:04:44.421Z,40
2017-04-28T06:05:53.160Z,40
2017-04-28T06:07:02.258Z,40
2017-04-28T06:08:11.042Z,40
2017-04-28T06:09:20.120Z,40
2017-04-28T06:10:29.839Z,40
2017-04-28T06:11:38.630Z,40
2017-04-28T06:12:47.982Z,40
2017-04-28T06:13:57.066Z,40
2017-04-28T06:15:06.402Z,45
2017-04-28T06:16:15.475Z,45
2017-04-28T06:17:24.490Z,45
2017-04-28T06:18:33.851Z,45
2017-04-28T06:19:42.948Z,45
2017-04-28T06:20:52.347Z,45
2017-04-28T06:22:01.376Z,45
2017-04-28T06:23:11.008Z,50
2017-04-28T06:24:20.103Z,50
2017-04-28T06:25:29.194Z,50
2017-04-28T06:26:37.979Z,50
2017-04-28T06:27:46.761Z,50
2017-04-28T06:28:55.791Z,50
2017-04-28T06:30:05.054Z,50
2017-04-28T06:31:14.410Z,55
2017-04-28T06:32:23.502Z,55
2017-04-28T06:33:32.289Z,55
2017-04-28T06:34:41.071Z,55
2017-04-28T06:35:49.861Z,55
2017-04-28T06:36:59.257Z,55
2017-04-28T06:38:08.345Z,55
2017-04-28T06:39:17.982Z,55
2017-04-28T06:40:27.309Z,55
2017-04-28T06:41:36.084Z,55
2017-04-28T06:42:44.879Z,60
2017-04-28T06:43:53.652Z,60
2017-04-28T06:45:02.739Z,60
2017-04-28T06:46:11.820Z,60
2017-04-28T06:47:20.608Z,60
2017-04-28T06:48:29.696Z,60
2017-04-28T06:49:38.787Z,60
2017-04-28T06:50:47.811Z,60
2017-04-28T06:51:56.906Z,65
2017-04-28T06:53:06.816Z,65
2017-04-28T06:54:16.524Z,60
2017-04-28T06:55:26.012Z,65
2017-04-28T06:56:35.117Z,70
2017-04-28T06:57:44.823Z,80
2017-04-28T06:58:53.927Z,75
2017-04-28T07:00:02.953Z,75
2017-04-28T07:01:12.327Z,75
2017-04-28T07:02:21.659Z,70
2017-04-28T07:03:30.755Z,70
2017-04-28T07:04:39.470Z,70
2017-04-28T07:05:48.255Z,65
2017-04-28T07:06:57.040Z,75
2017-04-28T07:08:05.846Z,75
2017-04-28T07:09:14.946Z,75
2017-04-28T07:10:24.345Z,75
2017-04-28T07:11:33.128Z,70
2017-04-28T07:12:42.211Z,65
2017-04-28T07:13:51.607Z,65
2017-04-28T07:15:01.002Z,70
2017-04-28T07:16:10.997Z,90
2017-04-28T07:17:20.402Z,90
2017-04-28T07:18:29.501Z,85
2017-04-28T07:19:38.284Z,80
2017-04-28T07:20:47.374Z,75
2017-04-28T07:21:56.772Z,85
2017-04-28T07:23:05.895Z,85
2017-04-28T07:24:14.983Z,75
2017-04-28T07:25:24.056Z,90
2017-04-28T07:26:32.851Z,85
2017-04-28T07:27:41.946Z,85
2017-04-28T07:28:51.347Z,85
2017-04-28T07:30:00.137Z,90
2017-04-28T07:31:09.539Z,90
2017-04-28T07:32:18.641Z,90
2017-04-28T07:33:27.739Z,100
2017-04-28T07:34:37.138Z,100
2017-04-28T07:35:46.542Z,110
2017-04-28T07:36:55.636Z,115
2017-04-28T07:38:04.731Z,115
2017-04-28T07:39:14.126Z,125
2017-04-28T07:40:22.911Z,110
2017-04-28T07:41:32.204Z,90
2017-04-28T07:42:41.592Z,85
2017-04-28T07:43:50.616Z,80
2017-04-28T07:45:00.001Z,90
2017-04-28T07:46:09.706Z,110
2017-04-28T07:47:18.489Z,130
2017-04-28T07:48:27.283Z,115
2017-04-28T07:49:36.063Z,130
2017-04-28T07:50:45.166Z,120
2017-04-28T07:51:54.258Z,125
2017-04-28T07:53:03.053Z,145
2017-04-28T07:54:12.149Z,135
2017-04-28T07:55:21.247Z,115
2017-04-28T07:56:30.348Z,115
2017-04-28T07:57:39.384Z,130
2017-04-28T07:58:48.168Z,120
2017-04-28T07:59:56.951Z,120
2017-04-28T08:01:06.276Z,150
2017-04-28T08:02:15.674Z,125
2017-04-28T08:03:25.126Z,115
2017-04-28T08:04:33.912Z,115
2017-04-28T08:05:42.697Z,100
2017-04-28T08:06:51.473Z,110
2017-04-28T08:08:00.799Z,115
2017-04-28T08:09:09.509Z,115
2017-04-28T08:10:18.881Z,130
2017-04-28T08:11:27.672Z,110
2017-04-28T08:12:36.458Z,115
2017-04-28T08:13:45.854Z,120
2017-04-28T08:14:54.946Z,110
2017-04-28T08:16:03.738Z,120
2017-04-28T08:17:12.524Z,110
2017-04-28T08:18:21.859Z,100
2017-04-28T08:19:30.646Z,100
2017-04-28T08:20:39.701Z,95
2017-04-28T08:21:48.793Z,100
2017-04-28T08:22:57.882Z,95
2017-04-28T08:24:07.784Z,90
2017-04-28T08:25:16.576Z,85
2017-04-28T08:26:25.594Z,90
2017-04-28T08:27:34.690Z,95
2017-04-28T08:28:44.384Z,105
2017-04-28T08:29:53.177Z,105
2017-04-28T08:31:02.282Z,105
2017-04-28T08:32:11.077Z,105
2017-04-28T08:33:20.483Z,110
2017-04-28T08:34:29.236Z,115
2017-04-28T08:35:38.624Z,115
2017-04-28T08:36:47.400Z,115
2017-04-28T08:37:56.803Z,115
2017-04-28T08:39:05.904Z,115
2017-04-28T08:40:15.011Z,120
2017-04-28T08:41:23.821Z,130
2017-04-28T08:42:33.218Z,130
2017-04-28T08:43:42.002Z,145
2017-04-28T08:44:52.013Z,160
2017-04-28T08:46:01.409Z,150
2017-04-28T08:47:10.495Z,145
2017-04-28T08:48:19.897Z,140
2017-04-28T08:49:28.989Z,145
2017-04-28T08:50:37.785Z,155
2017-04-28T08:51:47.173Z,165
2017-04-28T08:52:56.573Z,150
2017-04-28T08:54:05.667Z,135
2017-04-28T08:55:14.467Z,150
2017-04-28T08:56:23.855Z,125
2017-04-28T08:57:33.246Z,115
2017-04-28T08:58:42.023Z,135
2017-04-28T08:59:50.806Z,160
2017-04-28T09:00:59.868Z,160
2017-04-28T09:02:09.266Z,150
2017-04-28T09:03:18.677Z,170
2017-04-28T09:04:27.757Z,220
2017-04-28T09:05:36.848Z,205
2017-04-28T09:06:45.634Z,215
2017-04-28T09:07:54.715Z,170
2017-04-28T09:09:04.419Z,205
2017-04-28T09:10:13.198Z,225
2017-04-28T09:11:22.293Z,230
2017-04-28T09:12:31.396Z,235
2017-04-28T09:13:40.183Z,235
2017-04-28T09:14:48.909Z,230
2017-04-28T09:15:57.710Z,205
2017-04-28T09:17:07.365Z,175
2017-04-28T09:18:16.163Z,145
2017-04-28T09:19:25.263Z,170
2017-04-28T09:20:34.350Z,230
2017-04-28T09:21:43.146Z,170
2017-04-28T09:22:52.243Z,75
2017-04-28T09:24:01.936Z,65
2017-04-28T09:25:11.344Z,80
2017-04-28T09:26:20.972Z,140
2017-04-28T09:27:30.370Z,410
2017-04-28T09:28:39.466Z,380
2017-04-28T09:29:48.867Z,280
2017-04-28T09:30:58.804Z,400
2017-04-28T09:32:07.907Z,515
2017-04-28T09:33:17.297Z,570
2017-04-28T09:34:26.236Z,405
2017-04-28T09:35:35.015Z,795
2017-04-28T09:36:44.412Z,465
2017-04-28T09:37:53.233Z,520
2017-04-28T09:39:02.288Z,710
2017-04-28T09:40:11.085Z,605
2017-04-28T09:41:20.181Z,360
2017-04-28T09:42:29.571Z,305
2017-04-28T09:43:38.664Z,215
2017-04-28T09:44:47.692Z,170
2017-04-28T09:45:56.764Z,180
2017-04-28T09:47:05.864Z,260
2017-04-28T09:48:15.471Z,165
2017-04-28T09:49:24.301Z,75
2017-04-28T09:50:34.014Z,60
2017-04-28T09:51:43.113Z,60
2017-04-28T09:52:52.515Z,60
2017-04-28T09:54:01.609Z,60
2017-04-28T09:55:10.705Z,65
2017-04-28T09:56:20.114Z,55
2017-04-28T09:57:28.903Z,55
2017-04-28T09:58:38.301Z,50
2017-04-28T09:59:47.098Z,50
2017-04-28T10:00:55.885Z,60
2017-04-28T10:02:04.990Z,75
2017-04-28T10:03:13.730Z,90
2017-04-28T10:04:22.525Z,90
2017-04-28T10:05:31.620Z,95
2017-04-28T10:06:41.323Z,105
2017-04-28T10:07:50.429Z,125
2017-04-28T10:08:59.764Z,165
2017-04-28T10:10:09.158Z,815
2017-04-28T10:11:18.242Z,470
2017-04-28T10:12:27.337Z,220
2017-04-28T10:13:36.740Z,220
2017-04-28T10:14:46.129Z,850
2017-04-28T10:15:55.219Z,190
2017-04-28T10:17:04.328Z,310
2017-04-28T10:18:13.722Z,520
2017-04-28T10:19:22.817Z,180
2017-04-28T10:20:31.596Z,470
2017-04-28T10:21:40.681Z,75
2017-04-28T10:22:49.776Z,75
2017-04-28T10:23:58.530Z,75
2017-04-28T10:25:07.863Z,105
2017-04-28T10:26:16.657Z,150
2017-04-28T10:27:25.455Z,125
2017-04-28T10:28:34.488Z,130
2017-04-28T10:29:44.169Z,270
2017-04-28T10:30:52.879Z,1430
2017-04-28T10:32:02.009Z,1410
2017-04-28T10:33:11.716Z,1480
2017-04-28T10:34:20.505Z,625
2017-04-28T10:35:29.825Z,180
2017-04-28T10:36:39.433Z,115
2017-04-28T10:37:48.796Z,105
2017-04-28T10:38:57.896Z,95
2017-04-28T10:40:07.296Z,75
2017-04-28T10:41:16.377Z,65
2017-04-28T10:42:25.158Z,65
2017-04-28T10:43:34.179Z,70
2017-04-28T10:44:42.907Z,65
2017-04-28T10:45:51.621Z,75
2017-04-28T10:47:00.716Z,105
2017-04-28T10:48:09.814Z,165
2017-04-28T10:49:18.606Z,100
2017-04-28T10:50:27.705Z,75
2017-04-28T10:51:36.494Z,80
2017-04-28T10:52:45.224Z,75
2017-04-28T10:53:54.001Z,95
2017-04-28T10:55:03.089Z,120
2017-04-28T10:56:12.422Z,125
2017-04-28T10:57:21.519Z,165
2017-04-28T10:58:30.906Z,685
2017-04-28T10:59:40.005Z,495
2017-04-28T11:00:49.112Z,725
2017-04-28T11:01:58.206Z,540
2017-04-28T11:03:06.990Z,1235
2017-04-28T11:04:15.790Z,145
2017-04-28T11:05:24.883Z,70
2017-04-28T11:06:33.970Z,55
2017-04-28T11:07:43.672Z,55
2017-04-28T11:08:52.759Z,55
2017-04-28T11:10:01.550Z,50
2017-04-28T11:11:10.952Z,45
2017-04-28T11:12:20.342Z,45
2017-04-28T11:13:29.436Z,45
2017-04-28T11:14:38.233Z,40
2017-04-28T11:15:47.058Z,35
2017-04-28T11:16:55.841Z,35
2017-04-28T11:18:04.932Z,30
2017-04-28T11:19:14.322Z,30
2017-04-28T11:20:23.964Z,30
2017-04-28T11:21:33.052Z,35
2017-04-28T11:22:42.447Z,40
2017-04-28T11:23:51.840Z,50
2017-04-28T11:25:00.550Z,50
2017-04-28T11:26:09.877Z,55
2017-04-28T11:27:18.665Z,75
2017-04-28T11:28:27.689Z,80
2017-04-28T11:29:36.788Z,85
2017-04-28T11:30:46.021Z,75
2017-04-28T11:31:54.842Z,65
2017-04-28T11:33:03.936Z,55
2017-04-28T11:34:13.330Z,55
2017-04-28T11:35:22.734Z,55
2017-04-28T11:36:32.143Z,55
2017-04-28T11:37:41.544Z,65
2017-04-28T11:38:50.333Z,60
2017-04-28T11:40:00.018Z,55
2017-04-28T11:41:08.796Z,50
2017-04-28T11:42:17.884Z,45
2017-04-28T11:43:27.137Z,40
2017-04-28T11:44:36.233Z,35
2017-04-28T11:45:45.334Z,35
2017-04-28T11:46:54.120Z,30
2017-04-28T11:48:02.909Z,30
2017-04-28T11:49:12.616Z,35
2017-04-28T11:50:21.340Z,30
2017-04-28T11:51:30.682Z,35
2017-04-28T11:52:40.090Z,35
2017-04-28T11:53:48.873Z,35
2017-04-28T11:54:58.170Z,35
2017-04-28T11:56:07.567Z,40
2017-04-28T11:57:16.363Z,40
2017-04-28T11:58:25.459Z,40
2017-04-28T11:59:34.179Z,40
2017-04-28T12:00:43.570Z,45
2017-04-28T12:01:52.357Z,45
2017-04-28T12:03:01.453Z,40
2017-04-28T12:04:10.542Z,40
2017-04-28T12:05:19.334Z,40
2017-04-28T12:06:28.118Z,40
2017-04-28T12:07:37.215Z,40
2017-04-28T12:08:45.938Z,40
2017-04-28T12:09:55.035Z,40
2017-04-28T12:11:04.138Z,40
2017-04-28T12:12:13.225Z,40
2017-04-28T12:13:22.331Z,35
2017-04-28T12:14:31.052Z,35
2017-04-28T12:15:39.781Z,35
2017-04-28T12:16:49.785Z,35
2017-04-28T12:17:58.881Z,35
2017-04-28T12:19:07.672Z,35
2017-04-28T12:20:17.373Z,40
2017-04-28T12:21:26.165Z,40
2017-04-28T12:22:35.582Z,40
2017-04-28T12:23:44.985Z,45
2017-04-28T12:24:54.370Z,45
2017-04-28T12:26:03.155Z,45
2017-04-28T12:27:11.949Z,50
2017-04-28T12:28:20.741Z,50
2017-04-28T12:29:30.153Z,45
2017-04-28T12:30:39.782Z,40
2017-04-28T12:31:48.561Z,40
2017-04-28T12:32:58.571Z,40
2017-04-28T12:34:08.281Z,40
2017-04-28T12:35:17.994Z,45
2017-04-28T12:36:27.388Z,50
2017-04-28T12:37:36.183Z,55
2017-04-28T12:38:45.280Z,55
2017-04-28T12:39:54.374Z,55
2017-04-28T12:41:03.164Z,55
2017-04-28T12:42:12.199Z,55
2017-04-28T12:43:21.550Z,55
2017-04-28T12:44:30.943Z,65
2017-04-28T12:45:40.045Z,70
2017-04-28T12:46:49.368Z,80
2017-04-28T12:47:58.758Z,95
2017-04-28T12:49:08.361Z,95
2017-04-28T12:50:17.083Z,95
2017-04-28T12:51:25.961Z,100
2017-04-28T12:52:35.053Z,110
2017-04-28T12:53:44.146Z,125
2017-04-28T12:54:52.925Z,135
2017-04-28T12:56:01.643Z,120
2017-04-28T12:57:11.047Z,95
2017-04-28T12:58:20.430Z,85
2017-04-28T12:59:29.775Z,85
2017-04-28T13:00:38.874Z,75
2017-04-28T13:01:47.972Z,65
2017-04-28T13:02:57.078Z,60
2017-04-28T13:04:06.184Z,55
2017-04-28T13:05:15.273Z,50
2017-04-28T13:06:24.052Z,50
2017-04-28T13:07:32.840Z,70
2017-04-28T13:08:42.247Z,85
2017-04-28T13:09:51.348Z,75
2017-04-28T13:11:01.037Z,65
2017-04-28T13:12:10.380Z,55
2017-04-28T13:13:19.686Z,55
2017-04-28T13:14:29.095Z,65
2017-04-28T13:15:38.782Z,75
2017-04-28T13:16:48.177Z,75
2017-04-28T13:17:56.960Z,75
2017-04-28T13:19:06.058Z,85
2017-04-28T13:20:15.154Z,80
2017-04-28T13:21:24.554Z,65
2017-04-28T13:22:33.921Z,50
2017-04-28T13:23:43.021Z,55
2017-04-28T13:24:52.424Z,65
2017-04-28T13:26:01.267Z,55
2017-04-28T13:27:10.645Z,45
2017-04-28T13:28:20.346Z,55
2017-04-28T13:29:29.131Z,50
2017-04-28T13:30:38.234Z,45
2017-04-28T13:31:47.279Z,45
2017-04-28T13:32:56.064Z,45
2017-04-28T13:34:05.105Z,50
2017-04-28T13:35:14.506Z,55
2017-04-28T13:36:23.547Z,50
2017-04-28T13:37:32.655Z,45
2017-04-28T13:38:41.448Z,45
2017-04-28T13:39:50.481Z,50
2017-04-28T13:40:59.583Z,50
2017-04-28T13:42:08.992Z,55
2017-04-28T13:43:18.701Z,60
2017-04-28T13:44:27.499Z,75
2017-04-28T13:45:36.532Z,75
2017-04-28T13:46:45.323Z,65
2017-04-28T13:47:54.723Z,55
2017-04-28T13:49:03.850Z,55
2017-04-28T13:50:12.643Z,60
2017-04-28T13:51:22.045Z,70
2017-04-28T13:52:31.473Z,60
2017-04-28T13:53:40.254Z,75
2017-04-28T13:54:49.276Z,75
2017-04-28T13:55:58.064Z,85
2017-04-28T13:57:07.166Z,85
2017-04-28T13:58:16.262Z,105
2017-04-28T13:59:25.357Z,105
2017-04-28T14:00:34.753Z,105
2017-04-28T14:01:43.789Z,85
2017-04-28T14:02:53.130Z,80
2017-04-28T14:04:02.149Z,75
2017-04-28T14:05:11.551Z,80
2017-04-28T14:06:20.650Z,90
2017-04-28T14:07:29.425Z,90
2017-04-28T14:08:38.213Z,90
2017-04-28T14:09:47.306Z,95
2017-04-28T14:10:56.405Z,90
2017-04-28T14:12:05.490Z,85
2017-04-28T14:13:14.516Z,80
2017-04-28T14:14:23.605Z,75
2017-04-28T14:15:32.700Z,70
2017-04-28T14:16:41.795Z,60
2017-04-28T14:17:50.887Z,60
2017-04-28T14:18:59.973Z,75
2017-04-28T14:20:09.074Z,75
2017-04-28T14:21:18.418Z,70
2017-04-28T14:22:27.516Z,65
2017-04-28T14:23:36.305Z,70
2017-04-28T14:24:45.721Z,70
2017-04-28T14:25:54.750Z,60
2017-04-28T14:27:04.149Z,60
2017-04-28T14:28:12.869Z,60
2017-04-28T14:29:22.520Z,65
2017-04-28T14:30:31.862Z,65
2017-04-28T14:31:40.954Z,65
2017-04-28T14:32:50.349Z,60
2017-04-28T14:33:59.381Z,55
2017-04-28T14:35:09.019Z,55
2017-04-28T14:36:18.121Z,60
2017-04-28T14:37:27.519Z,60
2017-04-28T14:38:36.610Z,60
2017-04-28T14:39:46.014Z,65
2017-04-28T14:40:54.737Z,70
2017-04-28T14:42:04.139Z,70
2017-04-28T14:43:13.531Z,70
2017-04-28T14:44:22.557Z,70
2017-04-28T14:45:31.643Z,60
2017-04-28T14:46:40.363Z,60
2017-04-28T14:47:49.457Z,65
2017-04-28T14:48:58.250Z,65
2017-04-28T14:50:07.650Z,65
2017-04-28T14:51:16.754Z,60
2017-04-28T14:52:25.468Z,55
2017-04-28T14:53:34.257Z,55
2017-04-28T14:54:43.657Z,55
2017-04-28T14:55:53.366Z,55
2017-04-28T14:57:02.804Z,50
2017-04-28T14:58:11.887Z,50
2017-04-28T14:59:20.979Z,55
2017-04-28T15:00:29.700Z,55
2017-04-28T15:01:38.790Z,55
2017-04-28T15:02:47.869Z,55
2017-04-28T15:03:57.568Z,55
2017-04-28T15:05:06.359Z,50
2017-04-28T15:06:15.769Z,55
2017-04-28T15:07:25.103Z,55
2017-04-28T15:08:34.205Z,50
2017-04-28T15:09:42.931Z,50
2017-04-28T15:10:52.020Z,50
2017-04-28T15:12:01.049Z,45
2017-04-28T15:13:10.764Z,45
2017-04-28T15:14:19.861Z,45
2017-04-28T15:15:29.499Z,45
2017-04-28T15:16:38.283Z,50
2017-04-28T15:17:47.635Z,45
2017-04-28T15:18:56.672Z,45
2017-04-28T15:20:06.085Z,45
2017-04-28T15:21:15.177Z,50
2017-04-28T15:22:24.500Z,50
2017-04-28T15:23:33.920Z,50
2017-04-28T15:24:43.016Z,50
2017-04-28T15:25:51.798Z,45
2017-04-28T15:27:00.876Z,45
2017-04-28T15:28:10.217Z,40
2017-04-28T15:29:19.623Z,40
2017-04-28T15:30:28.409Z,45
2017-04-28T15:31:37.206Z,40
2017-04-28T15:32:46.610Z,40
2017-04-28T15:33:55.404Z,40
2017-04-28T15:35:04.829Z,40
2017-04-28T15:36:13.932Z,40
2017-04-28T15:37:23.090Z,45
2017-04-28T15:38:32.119Z,45
2017-04-28T15:39:41.818Z,40
2017-04-28T15:40:50.608Z,40
2017-04-28T15:41:59.400Z,40
2017-04-28T15:43:08.122Z,35
2017-04-28T15:44:16.927Z,35
2017-04-28T15:45:26.022Z,35
2017-04-28T15:46:35.111Z,35
2017-04-28T15:47:44.211Z,35
2017-04-28T15:48:53.213Z,35
2017-04-28T15:50:01.932Z,35
2017-04-28T15:51:11.035Z,35
2017-04-28T15:52:19.757Z,35
2017-04-28T15:53:28.778Z,30
2017-04-28T15:54:37.879Z,30
2017-04-28T15:55:46.664Z,25
2017-04-28T15:56:55.395Z,25
2017-04-28T15:58:04.481Z,25
2017-04-28T15:59:13.507Z,20
2017-04-28T16:00:22.304Z,20
2017-04-28T16:01:31.690Z,20
2017-04-28T16:02:41.020Z,20
2017-04-28T16:03:50.416Z,20
2017-04-28T16:04:59.522Z,20
2017-04-28T16:06:08.247Z,20
2017-04-28T16:07:17.323Z,25
2017-04-28T16:08:26.719Z,25
2017-04-28T16:09:35.821Z,20
2017-04-28T16:10:44.911Z,20
2017-04-28T16:11:54.246Z,15
2017-04-28T16:13:03.338Z,15
2017-04-28T16:14:12.741Z,15
2017-04-28T16:15:21.839Z,15
2017-04-28T16:16:31.551Z,10
2017-04-28T16:17:41.575Z,10
2017-04-28T16:18:51.605Z,10
2017-04-28T16:20:01.249Z,10
2017-04-28T16:21:10.644Z,10
2017-04-28T16:22:20.377Z,10
2017-04-28T16:23:29.731Z,10
2017-04-28T16:24:38.838Z,10
2017-04-28T16:25:47.930Z,5
2017-04-28T16:26:56.721Z,5
2017-04-28T16:28:05.446Z,5
2017-04-28T16:29:15.151Z,5
2017-04-28T16:30:24.217Z,5